Main page
METAR-TAF:

METAR-TAF

Airports :

Tarawa, Kiribati

Bonriki International Airport

latitude: 01-21N, longitude: 172-55E, elevation: 2 m

Current weather observation

The report was made 35 minutes ago, at 14:00 UTC
Wind 6 kt from the East
Temperature 27°C
Humidity 84%
Pressure 1008 hPa
Visibility 10 km or more
Scattered clouds at a height of 2000 ft

METAR: NGTA 251400Z 09006KT 9999 SCT020 27/24 Q1008

Time: 04:35 (14:35 UTC)

Forecast

The report was made 2 hours and 56 minutes ago, at 11:39 UTC
Forecast valid from 25 at 12 UTC to 26 at 12 UTC
Wind 10 kt from the East/Southeast
Visibility 10 km or more
Few clouds at a height of 2000 ft

TAF: NGTA 251139Z 2512/2612 12010KT 9999 FEW020

Weather observations and forecasts of more than 4000 airports (METAR and TAF reports).

The available stations are represented by yellow and red dots on the map.

Hover mouse over dot to see the name of the station.

Then click to see weather observations and forecasts.

To change the map : click on the green buttons with a black cross to zoom in, on the green button with a dash to zoom out, or on the green arrows for adjacent maps.


METAR-TAF: